MDW weather

Chicago Midway International Airport
Chicago, Illinois, United States

Public forecast

Using degrees Fahrenheit for public forecast. Weather courtesy of forecast.io.

METAR (pilot weather report)

Retrieved 2017/08/18 01:53 UTC (30 minutes ago):

KMDW 180153Z 26013G24KT 10SM FEW037 FEW044 BKN070 26/18 A2977 RMK AO2 SLP071 T02610178

TAF (pilot weather forecast)

Forecast is more than 12 hours old.

Retrieved 2017/08/17 00:22 UTC (1 day ago):

TAF KMDW 172320Z 1800/1824 25014G24KT P6SM BKN040 FM180200 26012G18KT P6SM FEW025 BKN040 FM180600 28012KT P6SM SCT040 FM181500 29012G19KT P6SM SCT040